Time;durP1;ratioP1;P1;durP2;ratioP2;P2;SDS_P1;SDS_P2;PMS_P1;PMS_P2;Temp;Humidity;BMP_temperature;BMP_pressure;BME280_temperature;BME280_humidity;BME280_pressure;Samples;Min_cycle;Max_cycle;Signal;HPM_P1;HPM_P2
2021/06/18 00:01:21;;;;;;;5.25;2.50;;;20.70;66.60;;;;;;5073191;28;20025;-48
2021/06/18 00:03:48;;;;;;;5.18;2.78;;;20.70;66.70;;;;;;5073998;28;20024;-47
2021/06/18 00:06:13;;;;;;;9.82;2.85;;;20.80;66.70;;;;;;5073636;28;20043;-48
2021/06/18 00:08:39;;;;;;;4.80;2.90;;;20.70;66.60;;;;;;5073164;28;20029;-48
2021/06/18 00:11:05;;;;;;;5.18;2.53;;;20.70;66.70;;;;;;5072957;28;20036;-48
2021/06/18 00:13:31;;;;;;;3.75;2.25;;;20.70;67.40;;;;;;5073225;28;20032;-47
2021/06/18 00:15:56;;;;;;;3.22;2.40;;;20.70;66.70;;;;;;5072950;28;20459;-47
2021/06/18 00:18:22;;;;;;;4.82;2.35;;;20.70;66.70;;;;;;5073408;28;20024;-47
2021/06/18 00:20:48;;;;;;;5.93;2.85;;;20.70;66.80;;;;;;5072270;28;20109;-47
2021/06/18 00:23:13;;;;;;;6.10;2.38;;;20.70;66.80;;;;;;5073038;28;20024;-47
2021/06/18 00:25:40;;;;;;;4.38;2.08;;;20.70;66.90;;;;;;5073336;28;20045;-48
2021/06/18 00:28:05;;;;;;;4.18;2.60;;;20.70;66.80;;;;;;5073383;28;20359;-48
2021/06/18 00:30:31;;;;;;;6.32;2.53;;;20.70;66.80;;;;;;5071434;28;20039;-47
2021/06/18 00:32:57;;;;;;;4.97;2.42;;;20.70;66.90;;;;;;5073095;28;20020;-47
2021/06/18 00:35:22;;;;;;;4.85;2.72;;;20.70;66.90;;;;;;5073187;28;20460;-48
2021/06/18 00:37:48;;;;;;;5.60;2.67;;;20.70;66.90;;;;;;5073030;28;20025;-47
2021/06/18 00:40:14;;;;;;;6.00;2.92;;;20.70;66.90;;;;;;5072408;28;20032;-47
2021/06/18 00:42:40;;;;;;;3.95;2.30;;;20.70;66.90;;;;;;5073192;28;20439;-47
2021/06/18 00:45:06;;;;;;;4.68;2.70;;;20.60;67.00;;;;;;5073362;28;20028;-47
2021/06/18 00:47:33;;;;;;;4.60;2.53;;;20.60;67.00;;;;;;5072885;28;20025;-47
2021/06/18 00:49:58;;;;;;;4.43;2.53;;;20.60;66.90;;;;;;5072903;28;20083;-47
2021/06/18 00:52:24;;;;;;;8.48;2.50;;;20.60;66.90;;;;;;5072120;28;20064;-48
2021/06/18 00:54:50;;;;;;;3.05;2.35;;;20.70;66.90;;;;;;5073048;28;20447;-47
2021/06/18 00:57:17;;;;;;;9.38;3.15;;;20.60;66.90;;;;;;5072864;28;20099;-47
2021/06/18 00:59:42;;;;;;;4.57;2.80;;;20.60;66.80;;;;;;5072922;28;20028;-48
2021/06/18 01:02:08;;;;;;;4.25;2.75;;;20.60;66.90;;;;;;5072126;28;20017;-47
2021/06/18 01:04:36;;;;;;;2.58;2.20;;;20.60;66.90;;;;;;5073287;28;20474;-48
2021/06/18 01:07:15;;;;;;;2.90;2.53;;;20.60;67.00;;;;;;5071276;28;20102;-47
2021/06/18 01:10:00;;;;;;;5.43;2.67;;;20.60;67.00;;;;;;5072783;28;20041;-47
2021/06/18 01:12:30;;;;;;;4.30;2.80;;;20.60;66.90;;;;;;5072270;28;20064;-47
2021/06/18 01:15:16;;;;;;;4.47;2.35;;;20.60;67.00;;;;;;5072537;28;20025;-47
2021/06/18 01:17:53;;;;;;;3.63;2.70;;;20.60;67.10;;;;;;5072735;28;20028;-47
2021/06/18 01:20:37;;;;;;;3.90;2.75;;;20.60;66.90;;;;;;5072013;28;20036;-48
2021/06/18 01:23:12;;;;;;;3.83;2.33;;;20.60;67.00;;;;;;5072519;28;20025;-47
2021/06/18 01:25:50;;;;;;;4.50;2.53;;;20.60;67.00;;;;;;5074108;28;20024;-47
2021/06/18 01:28:41;;;;;;;6.00;2.60;;;20.60;67.00;;;;;;5076115;28;20398;-47
2021/06/18 01:31:11;;;;;;;6.88;2.75;;;20.60;67.00;;;;;;5076163;28;20409;-47
2021/06/18 01:33:40;;;;;;;3.72;2.53;;;20.60;67.00;;;;;;5076844;28;20102;-47
2021/06/18 01:36:08;;;;;;;6.30;2.22;;;20.60;66.90;;;;;;5076968;28;20032;-47
2021/06/18 01:38:39;;;;;;;2.83;2.33;;;20.60;66.90;;;;;;5075974;28;20021;-47
2021/06/18 01:41:09;;;;;;;3.38;2.50;;;20.60;67.00;;;;;;5075815;28;20024;-48
2021/06/18 01:43:36;;;;;;;4.07;2.50;;;20.60;66.90;;;;;;5076290;28;20524;-47
2021/06/18 01:46:03;;;;;;;3.50;2.58;;;20.60;66.90;;;;;;5076281;28;20350;-47
2021/06/18 01:48:30;;;;;;;3.60;2.50;;;20.60;66.90;;;;;;5076323;28;20046;-47
2021/06/18 01:50:57;;;;;;;3.55;2.42;;;20.60;66.90;;;;;;5075697;28;20138;-47
2021/06/18 01:53:25;;;;;;;5.30;2.33;;;20.50;66.90;;;;;;5076077;28;20029;-47
2021/06/18 01:55:52;;;;;;;3.92;2.42;;;20.50;66.90;;;;;;5076419;28;20031;-47
2021/06/18 01:58:20;;;;;;;3.97;2.40;;;20.60;67.10;;;;;;5076195;28;20028;-48
2021/06/18 02:00:48;;;;;;;3.97;2.33;;;20.50;67.00;;;;;;5075598;28;20035;-47
2021/06/18 02:03:19;;;;;;;4.78;2.42;;;20.50;67.00;;;;;;5076161;28;20039;-48
2021/06/18 02:05:45;;;;;;;5.72;2.85;;;20.50;67.00;;;;;;5075762;28;20036;-47
2021/06/18 02:08:12;;;;;;;3.95;2.30;;;20.50;67.00;;;;;;5075490;28;20452;-47
2021/06/18 02:10:42;;;;;;;2.80;2.10;;;20.50;67.00;;;;;;5075101;28;20463;-47
2021/06/18 02:13:09;;;;;;;4.90;2.58;;;20.50;67.00;;;;;;5075960;28;20021;-47
2021/06/18 02:15:41;;;;;;;6.60;2.95;;;20.50;67.00;;;;;;5075720;28;20062;-47
2021/06/18 02:18:10;;;;;;;8.10;2.75;;;20.50;67.00;;;;;;5075931;28;20099;-47
2021/06/18 02:20:37;;;;;;;8.02;2.70;;;20.50;67.10;;;;;;5074682;28;20032;-48
2021/06/18 02:23:04;;;;;;;3.92;2.60;;;20.50;67.10;;;;;;5076158;28;20044;-48
2021/06/18 02:25:31;;;;;;;3.58;2.53;;;20.50;67.20;;;;;;5075442;28;20024;-47
2021/06/18 02:27:59;;;;;;;4.68;2.63;;;20.40;67.20;;;;;;5075446;28;20035;-48
2021/06/18 02:30:25;;;;;;;4.50;3.13;;;20.40;67.20;;;;;;5075008;28;20041;-47
2021/06/18 02:32:52;;;;;;;2.95;2.60;;;20.50;67.20;;;;;;5075163;28;20358;-47
2021/06/18 02:35:18;;;;;;;7.15;2.75;;;20.40;67.20;;;;;;5075695;28;20039;-47
2021/06/18 02:37:44;;;;;;;8.18;2.97;;;20.40;67.20;;;;;;5074949;28;20032;-48
2021/06/18 02:40:10;;;;;;;4.00;2.88;;;20.40;67.20;;;;;;5074505;28;20473;-47
2021/06/18 02:42:35;;;;;;;7.82;2.67;;;20.40;67.20;;;;;;5075336;28;20443;-47
2021/06/18 02:45:01;;;;;;;7.72;2.42;;;20.40;67.20;;;;;;5075339;28;20454;-47
2021/06/18 02:47:44;;;;;;;4.25;2.65;;;20.40;67.20;;;;;;5075146;28;20028;-47
2021/06/18 02:50:19;;;;;;;5.35;2.65;;;20.40;67.30;;;;;;5067339;28;20402;-48
2021/06/18 02:53:05;;;;;;;3.90;2.88;;;20.40;67.20;;;;;;5075306;28;20050;-47
2021/06/18 02:55:36;;;;;;;4.93;2.45;;;20.40;67.30;;;;;;5075294;28;20107;-47
2021/06/18 02:58:19;;;;;;;4.65;2.67;;;20.40;67.30;;;;;;5075172;28;20016;-47
2021/06/18 03:00:45;;;;;;;4.57;2.63;;;20.40;67.20;;;;;;5073775;28;20434;-47
2021/06/18 03:03:14;;;;;;;3.50;2.67;;;20.40;67.30;;;;;;5075299;28;20031;-47
2021/06/18 03:05:41;;;;;;;2.65;2.10;;;20.40;67.40;;;;;;5074980;28;20075;-47
2021/06/18 03:08:10;;;;;;;2.80;2.13;;;20.40;67.30;;;;;;5074842;28;20072;-47
2021/06/18 03:10:40;;;;;;;5.05;2.80;;;20.40;67.30;;;;;;5073705;28;20036;-47
2021/06/18 03:13:26;;;;;;;9.23;3.00;;;20.40;68.20;;;;;;5074915;28;20063;-47
2021/06/18 03:15:51;;;;;;;5.38;3.03;;;20.40;67.30;;;;;;5074513;28;20039;-47
2021/06/18 03:18:21;;;;;;;4.57;2.90;;;20.40;67.50;;;;;;5074826;28;20024;-47
2021/06/18 03:20:51;;;;;;;5.40;3.10;;;20.40;67.40;;;;;;5073860;28;20067;-48
2021/06/18 03:23:19;;;;;;;8.88;2.38;;;20.40;67.50;;;;;;5074789;28;20028;-47
2021/06/18 03:25:46;;;;;;;3.20;2.70;;;20.40;67.40;;;;;;5074039;28;20056;-47
2021/06/18 03:28:12;;;;;;;4.50;2.72;;;20.30;67.30;;;;;;5074276;28;20078;-47
2021/06/18 03:30:39;;;;;;;3.78;2.90;;;20.40;67.40;;;;;;5074043;28;20044;-47
2021/06/18 03:33:06;;;;;;;4.00;2.70;;;20.30;67.40;;;;;;5074198;28;20062;-47
2021/06/18 03:35:32;;;;;;;4.88;2.72;;;20.40;67.50;;;;;;5074425;28;20028;-47
2021/06/18 03:37:58;;;;;;;3.53;2.88;;;20.30;67.50;;;;;;5074122;28;20094;-48
2021/06/18 03:40:25;;;;;;;2.95;2.65;;;20.30;67.50;;;;;;5073612;28;20040;-47
2021/06/18 03:42:52;;;;;;;8.85;2.90;;;20.30;67.40;;;;;;5074550;28;20058;-47
2021/06/18 03:45:20;;;;;;;4.57;3.05;;;20.30;67.30;;;;;;5074219;28;20025;-47
2021/06/18 03:47:46;;;;;;;4.15;2.60;;;20.30;67.40;;;;;;5073790;28;20031;-47
2021/06/18 03:50:16;;;;;;;4.25;2.53;;;20.30;67.50;;;;;;5072851;28;20166;-47
2021/06/18 03:52:42;;;;;;;12.95;3.17;;;20.30;67.50;;;;;;5073684;28;20025;-47
2021/06/18 03:55:09;;;;;;;6.88;2.95;;;20.30;67.50;;;;;;5074236;28;20035;-47
2021/06/18 03:57:35;;;;;;;5.18;2.75;;;20.30;67.50;;;;;;5073718;28;20028;-47
2021/06/18 04:00:04;;;;;;;4.07;2.60;;;20.30;67.60;;;;;;5074134;28;20129;-47
2021/06/18 04:02:31;;;;;;;4.50;2.75;;;20.30;67.50;;;;;;5073489;28;20128;-47
2021/06/18 04:04:58;;;;;;;4.28;2.58;;;20.30;67.50;;;;;;5073789;28;20024;-47
2021/06/18 04:07:25;;;;;;;4.72;2.63;;;20.30;67.50;;;;;;5073323;28;20393;-47
2021/06/18 04:09:52;;;;;;;5.03;2.90;;;20.30;67.60;;;;;;5073532;28;20059;-47
2021/06/18 04:12:18;;;;;;;7.93;3.20;;;20.30;67.60;;;;;;5072877;28;20024;-47
2021/06/18 04:14:44;;;;;;;3.05;2.63;;;20.30;67.70;;;;;;5073503;28;20059;-47
2021/06/18 04:17:10;;;;;;;4.57;3.00;;;20.30;67.80;;;;;;5073388;28;20462;-47
2021/06/18 04:19:37;;;;;;;2.75;2.15;;;20.30;67.60;;;;;;5073206;28;20032;-47
2021/06/18 04:22:04;;;;;;;3.00;2.55;;;20.30;67.60;;;;;;5072412;28;20488;-47
2021/06/18 04:24:31;;;;;;;2.80;2.47;;;20.30;67.60;;;;;;5064931;28;20032;-47
2021/06/18 04:26:57;;;;;;;4.07;2.80;;;20.30;67.50;;;;;;5071429;28;20044;-47
2021/06/18 04:29:22;;;;;;;3.50;2.78;;;20.30;67.40;;;;;;5072861;28;20044;-47
2021/06/18 04:31:48;;;;;;;3.88;2.63;;;20.30;67.30;;;;;;5072247;28;20031;-48
2021/06/18 04:34:14;;;;;;;5.32;2.90;;;20.30;67.30;;;;;;5073086;28;20032;-47
2021/06/18 04:36:41;;;;;;;4.82;2.88;;;20.30;67.30;;;;;;5073082;28;20440;-47
2021/06/18 04:39:07;;;;;;;8.80;2.58;;;20.30;67.30;;;;;;5071751;28;20024;-47
2021/06/18 04:41:33;;;;;;;5.68;2.88;;;20.30;67.30;;;;;;5071622;28;20333;-49
2021/06/18 04:43:59;;;;;;;4.10;2.97;;;20.30;67.30;;;;;;5064862;28;20056;-47
2021/06/18 04:46:25;;;;;;;6.78;3.03;;;20.30;67.40;;;;;;5052891;28;20436;-47
2021/06/18 04:48:51;;;;;;;13.68;2.60;;;20.30;67.40;;;;;;5051846;28;20460;-48
2021/06/18 04:51:18;;;;;;;6.22;3.00;;;20.20;67.10;;;;;;5052305;28;20376;-48
2021/06/18 04:53:44;;;;;;;4.82;2.65;;;20.20;66.90;;;;;;5052726;28;20021;-47
2021/06/18 04:56:10;;;;;;;4.93;3.03;;;20.20;66.90;;;;;;5052974;28;20462;-48
2021/06/18 04:58:37;;;;;;;9.10;2.90;;;20.20;66.80;;;;;;5051035;28;20443;-47
2021/06/18 05:01:03;;;;;;;4.60;2.38;;;20.30;66.70;;;;;;5068738;28;20100;-48
2021/06/18 05:03:28;;;;;;;9.65;3.08;;;20.30;66.90;;;;;;5072415;28;20059;-48
2021/06/18 05:05:54;;;;;;;4.03;2.38;;;20.30;66.90;;;;;;5072669;28;20028;-48
2021/06/18 05:08:20;;;;;;;4.45;3.22;;;20.30;66.90;;;;;;5072258;28;20036;-48
2021/06/18 05:10:45;;;;;;;5.70;3.10;;;20.30;66.90;;;;;;5071436;28;20098;-48
2021/06/18 05:13:11;;;;;;;3.70;2.80;;;20.30;66.90;;;;;;5072369;28;20036;-47
2021/06/18 05:15:37;;;;;;;3.95;3.05;;;20.30;67.10;;;;;;5072676;28;20436;-47
2021/06/18 05:18:02;;;;;;;4.97;2.63;;;20.30;67.20;;;;;;5067563;28;20074;-47
2021/06/18 05:20:28;;;;;;;3.60;2.70;;;20.30;67.30;;;;;;5051126;28;20032;-48
2021/06/18 05:22:54;;;;;;;9.95;3.08;;;20.30;67.30;;;;;;5051714;28;20053;-48
2021/06/18 05:25:19;;;;;;;3.70;2.58;;;20.30;67.30;;;;;;5052616;28;20440;-48
2021/06/18 05:27:45;;;;;;;8.13;2.72;;;20.30;67.40;;;;;;5051438;28;20025;-48
2021/06/18 05:30:11;;;;;;;4.15;2.38;;;20.30;67.50;;;;;;5050334;28;20061;-48
2021/06/18 05:32:37;;;;;;;9.15;2.28;;;20.30;67.40;;;;;;5052178;28;20025;-48
2021/06/18 05:35:04;;;;;;;4.85;2.70;;;20.30;67.60;;;;;;5052680;28;20048;-48
2021/06/18 05:37:30;;;;;;;8.35;3.08;;;20.30;67.60;;;;;;5052346;28;20032;-48
2021/06/18 05:39:56;;;;;;;7.00;3.33;;;20.30;67.70;;;;;;5052493;28;20033;-48
2021/06/18 05:42:21;;;;;;;5.75;3.40;;;20.30;67.80;;;;;;5051745;28;20029;-48
2021/06/18 05:44:47;;;;;;;7.97;2.88;;;20.30;67.70;;;;;;5051835;28;20029;-48
2021/06/18 05:47:13;;;;;;;9.10;3.95;;;20.40;67.70;;;;;;5052181;28;20029;-48
2021/06/18 05:49:38;;;;;;;10.80;3.75;;;20.40;67.70;;;;;;5052281;28;20033;-48
2021/06/18 05:52:04;;;;;;;8.15;3.42;;;20.40;67.70;;;;;;5051956;28;20049;-48
2021/06/18 05:54:29;;;;;;;6.97;3.28;;;20.40;67.70;;;;;;5052585;28;20032;-48
2021/06/18 05:56:55;;;;;;;9.45;3.85;;;20.40;67.90;;;;;;5052172;28;20451;-48
2021/06/18 05:59:21;;;;;;;7.60;3.65;;;20.40;68.00;;;;;;5051906;28;20083;-48
2021/06/18 06:01:46;;;;;;;6.07;3.78;;;20.40;67.80;;;;;;5051497;28;20435;-48
2021/06/18 06:04:12;;;;;;;9.07;4.43;;;20.40;67.80;;;;;;5052292;28;20048;-48
2021/06/18 06:06:38;;;;;;;7.18;4.05;;;20.40;67.80;;;;;;5052567;28;20099;-48
2021/06/18 06:09:03;;;;;;;12.60;4.07;;;20.50;67.80;;;;;;5051799;28;20090;-48
2021/06/18 06:11:30;;;;;;;10.57;4.95;;;20.50;67.80;;;;;;5051378;28;20031;-48
2021/06/18 06:14:00;;;;;;;11.95;3.95;;;20.50;67.70;;;;;;5054843;28;20112;-48
2021/06/18 06:16:27;;;;;;;6.75;3.90;;;20.50;67.70;;;;;;5056051;28;20399;-48
2021/06/18 06:18:53;;;;;;;6.65;3.58;;;20.50;67.70;;;;;;5055737;28;20067;-48
2021/06/18 06:21:18;;;;;;;12.70;3.70;;;20.50;67.80;;;;;;5055090;28;20024;-48
2021/06/18 06:23:44;;;;;;;6.60;3.38;;;20.50;67.80;;;;;;5055401;28;20033;-48
2021/06/18 06:26:10;;;;;;;6.50;3.72;;;20.50;67.70;;;;;;5056051;28;20060;-48
2021/06/18 06:28:36;;;;;;;8.70;4.00;;;20.50;67.80;;;;;;5047538;28;20517;-48
2021/06/18 06:31:03;;;;;;;7.13;3.60;;;20.50;67.70;;;;;;5054759;28;20037;-48
2021/06/18 06:33:28;;;;;;;6.15;3.70;;;20.50;67.80;;;;;;5055551;28;20047;-48
2021/06/18 06:35:54;;;;;;;7.70;3.72;;;20.50;67.80;;;;;;5055410;28;20025;-48
2021/06/18 06:38:20;;;;;;;5.70;3.83;;;20.60;67.80;;;;;;5054851;28;20104;-48
2021/06/18 06:40:47;;;;;;;7.75;3.35;;;20.60;67.80;;;;;;5054500;28;20447;-48
2021/06/18 06:43:13;;;;;;;6.65;3.63;;;20.60;67.80;;;;;;5054869;28;20029;-48
2021/06/18 06:45:39;;;;;;;8.50;3.53;;;20.60;67.80;;;;;;5055205;28;20404;-48
2021/06/18 06:48:05;;;;;;;5.10;3.30;;;20.60;67.70;;;;;;5055184;28;20025;-48
2021/06/18 06:50:30;;;;;;;5.45;3.47;;;20.60;67.80;;;;;;5054181;28;20047;-48
2021/06/18 06:52:56;;;;;;;8.63;3.13;;;20.60;67.60;;;;;;5054954;28;20024;-48
2021/06/18 06:55:22;;;;;;;5.68;3.13;;;20.60;67.70;;;;;;5055172;28;20032;-48
2021/06/18 06:57:47;;;;;;;6.93;3.65;;;20.70;67.70;;;;;;5054869;28;20100;-48
2021/06/18 07:00:13;;;;;;;7.60;4.05;;;20.70;67.70;;;;;;5054103;28;20432;-48
2021/06/18 07:02:39;;;;;;;7.28;3.65;;;20.70;67.70;;;;;;5054670;28;20025;-49
2021/06/18 07:05:05;;;;;;;6.53;3.97;;;20.70;67.70;;;;;;5054784;28;20116;-49
2021/06/18 07:07:31;;;;;;;8.35;3.78;;;20.70;67.70;;;;;;5054716;28;20049;-49
2021/06/18 07:09:57;;;;;;;6.25;3.70;;;20.70;67.60;;;;;;5054844;28;20064;-48
2021/06/18 07:12:22;;;;;;;12.57;3.63;;;20.70;67.60;;;;;;5054081;28;20041;-49
2021/06/18 07:14:48;;;;;;;8.02;3.40;;;20.70;67.70;;;;;;5054410;28;20021;-48
2021/06/18 07:17:14;;;;;;;8.50;5.53;;;20.80;67.60;;;;;;5054823;28;20029;-48
2021/06/18 07:19:39;;;;;;;11.57;5.63;;;20.80;67.70;;;;;;5054384;28;20086;-49
2021/06/18 07:22:05;;;;;;;8.73;5.88;;;20.80;67.80;;;;;;5053826;28;20032;-49
2021/06/18 07:24:31;;;;;;;11.60;5.78;;;20.80;67.80;;;;;;5054085;28;20363;-49
2021/06/18 07:26:57;;;;;;;6.85;4.95;;;20.80;67.80;;;;;;5054271;28;20033;-48
2021/06/18 07:29:25;;;;;;;9.10;5.75;;;20.80;67.90;;;;;;5053914;28;20028;-48
2021/06/18 07:31:51;;;;;;;6.95;4.82;;;20.80;67.90;;;;;;5053706;28;20045;-49
2021/06/18 07:34:17;;;;;;;8.27;5.15;;;20.80;68.00;;;;;;5034487;28;20361;-48
2021/06/18 07:36:42;;;;;;;7.75;5.63;;;20.90;68.10;;;;;;5034262;28;20116;-49
2021/06/18 07:39:08;;;;;;;10.70;6.22;;;20.90;68.10;;;;;;5034036;28;20444;-49
2021/06/18 07:41:35;;;;;;;8.90;6.20;;;20.90;68.90;;;;;;5047864;28;20144;-48
2021/06/18 07:44:01;;;;;;;8.20;5.47;;;20.90;68.20;;;;;;5053281;28;20031;-48
2021/06/18 07:46:28;;;;;;;10.77;6.20;;;20.90;68.30;;;;;;5053811;28;20025;-49
2021/06/18 07:48:54;;;;;;;9.65;5.97;;;20.90;68.30;;;;;;5054332;28;20071;-48
2021/06/18 07:51:20;;;;;;;7.72;5.85;;;20.90;68.30;;;;;;5053164;28;20425;-49
2021/06/18 07:53:45;;;;;;;11.63;7.07;;;20.90;68.60;;;;;;5054196;28;20104;-49
2021/06/18 07:56:12;;;;;;;10.25;6.63;;;21.00;68.60;;;;;;5053345;28;20479;-49
2021/06/18 07:58:38;;;;;;;12.23;5.85;;;21.00;68.90;;;;;;5054008;28;20025;-49
2021/06/18 08:01:05;;;;;;;10.45;5.88;;;21.00;69.00;;;;;;5053092;28;20463;-49
2021/06/18 08:03:31;;;;;;;14.15;5.25;;;21.00;69.60;;;;;;5053769;28;20029;-49
2021/06/18 08:05:56;;;;;;;8.73;5.18;;;21.10;69.10;;;;;;5042032;28;20383;-49
2021/06/18 08:08:22;;;;;;;8.10;4.63;;;21.10;69.10;;;;;;5033932;28;20452;-49
2021/06/18 08:10:47;;;;;;;7.80;5.35;;;21.10;68.90;;;;;;5032389;28;20038;-49
2021/06/18 08:13:13;;;;;;;7.55;5.35;;;21.10;69.10;;;;;;5033888;28;20427;-49
2021/06/18 08:15:39;;;;;;;10.18;5.75;;;21.10;69.10;;;;;;5033783;28;20029;-49
2021/06/18 08:18:04;;;;;;;7.47;6.03;;;21.10;69.20;;;;;;5033608;28;20120;-49
2021/06/18 08:20:30;;;;;;;8.32;5.90;;;21.10;69.00;;;;;;5031560;28;20064;-48
2021/06/18 08:22:57;;;;;;;8.25;5.75;;;21.10;69.20;;;;;;5032452;28;20463;-49
2021/06/18 08:25:23;;;;;;;8.82;6.35;;;21.10;69.20;;;;;;5031994;28;20034;-49
2021/06/18 08:27:49;;;;;;;9.25;6.53;;;21.10;69.20;;;;;;5032391;28;20140;-49
2021/06/18 08:30:16;;;;;;;9.43;5.72;;;21.10;69.20;;;;;;5031328;28;20037;-49
2021/06/18 08:32:42;;;;;;;10.75;6.15;;;21.20;69.20;;;;;;5032200;28;20025;-49
2021/06/18 08:35:08;;;;;;;13.68;6.25;;;21.20;69.20;;;;;;5032429;28;20029;-49
2021/06/18 08:37:34;;;;;;;6.88;5.65;;;21.20;69.10;;;;;;5033183;28;20111;-49
2021/06/18 08:39:59;;;;;;;5.88;4.60;;;21.20;69.00;;;;;;5032734;28;20444;-49
2021/06/18 08:42:25;;;;;;;10.75;4.90;;;21.20;69.00;;;;;;5032667;28;20029;-49
2021/06/18 08:44:52;;;;;;;19.98;4.53;;;21.20;68.90;;;;;;5033054;28;20022;-49
2021/06/18 08:47:17;;;;;;;7.65;5.75;;;21.20;68.70;;;;;;5033220;28;20030;-49
2021/06/18 08:49:43;;;;;;;8.98;5.38;;;21.20;68.60;;;;;;5033269;28;20040;-49
2021/06/18 08:52:09;;;;;;;6.45;4.53;;;21.20;68.60;;;;;;5032215;28;20356;-49
2021/06/18 08:54:42;;;;;;;5.90;4.43;;;21.30;68.60;;;;;;5033400;28;20067;-49
2021/06/18 08:57:12;;;;;;;9.70;5.50;;;21.30;68.50;;;;;;5032901;28;20276;-49
2021/06/18 08:59:39;;;;;;;7.18;4.32;;;21.30;68.50;;;;;;5038577;28;20052;-48
2021/06/18 09:02:04;;;;;;;9.95;6.28;;;21.20;68.40;;;;;;5052284;28;20025;-49
2021/06/18 09:04:30;;;;;;;8.27;5.28;;;21.30;68.50;;;;;;5053232;28;20371;-49
2021/06/18 09:07:02;;;;;;;7.28;4.90;;;21.30;68.40;;;;;;5051931;28;20432;-49
2021/06/18 09:09:30;;;;;;;8.60;4.55;;;21.30;68.30;;;;;;5052873;28;20025;-49
2021/06/18 09:12:04;;;;;;;7.28;5.18;;;21.30;68.20;;;;;;5051969;28;20060;-49
2021/06/18 09:14:32;;;;;;;7.65;5.35;;;21.30;68.30;;;;;;5052709;28;20025;-48
2021/06/18 09:17:19;;;;;;;7.22;4.90;;;21.30;68.30;;;;;;5052850;28;20052;-48
2021/06/18 09:19:51;;;;;;;12.40;4.28;;;21.30;68.40;;;;;;5052463;28;20077;-49
2021/06/18 09:22:23;;;;;;;11.55;4.22;;;21.30;68.20;;;;;;5052032;28;20025;-48
2021/06/18 09:25:00;;;;;;;7.05;4.30;;;21.30;68.20;;;;;;5052685;28;20025;-49
2021/06/18 09:27:35;;;;;;;7.35;4.20;;;21.40;68.30;;;;;;5052557;28;20055;-48
2021/06/18 09:30:16;;;;;;;5.82;4.13;;;21.40;68.20;;;;;;5052324;28;20033;-48
2021/06/18 09:32:55;;;;;;;5.43;3.85;;;21.40;68.00;;;;;;5052364;28;20029;-49
2021/06/18 09:35:20;;;;;;;6.38;4.60;;;21.40;68.00;;;;;;5052683;28;20028;-49
2021/06/18 09:37:55;;;;;;;10.48;4.43;;;21.40;68.10;;;;;;5052607;28;20029;-49
2021/06/18 09:40:22;;;;;;;12.88;4.07;;;21.40;68.00;;;;;;5051474;28;20028;-49
2021/06/18 09:42:56;;;;;;;15.20;3.63;;;21.40;68.00;;;;;;5052388;28;20052;-48
2021/06/18 09:45:30;;;;;;;6.18;3.80;;;21.40;67.90;;;;;;5052675;28;20025;-49
2021/06/18 09:48:08;;;;;;;10.85;3.88;;;21.40;68.00;;;;;;5055262;28;20079;-49
2021/06/18 09:50:36;;;;;;;9.70;3.15;;;21.40;68.00;;;;;;5055571;28;20036;-49
2021/06/18 09:53:19;;;;;;;15.85;3.80;;;21.40;68.00;;;;;;5056124;28;20029;-49
2021/06/18 09:55:46;;;;;;;8.75;3.65;;;21.40;68.00;;;;;;5056557;28;20037;-49
2021/06/18 09:58:29;;;;;;;4.72;3.30;;;21.40;67.90;;;;;;5056753;28;20083;-48
2021/06/18 10:01:23;;;;;;;4.53;3.10;;;21.40;67.80;;;;;;5055054;28;20031;-48
2021/06/18 10:04:05;;;;;;;7.03;2.78;;;21.40;67.80;;;;;;5056101;28;20021;-49
2021/06/18 10:06:33;;;;;;;4.07;2.80;;;21.40;67.70;;;;;;5056238;28;20084;-49
2021/06/18 10:09:02;;;;;;;3.15;2.50;;;21.40;67.60;;;;;;5055828;28;20108;-48
2021/06/18 10:11:29;;;;;;;5.15;2.85;;;21.40;67.60;;;;;;5054715;28;20533;-49
2021/06/18 10:13:56;;;;;;;4.00;2.22;;;21.40;67.50;;;;;;5056324;28;20080;-48
2021/06/18 10:16:22;;;;;;;3.70;2.72;;;21.40;67.40;;;;;;5055983;28;20032;-49
2021/06/18 10:18:49;;;;;;;2.60;2.17;;;21.40;67.30;;;;;;5055624;28;20381;-49
2021/06/18 10:21:19;;;;;;;13.27;2.58;;;21.40;67.30;;;;;;5055061;28;20349;-49
2021/06/18 10:23:49;;;;;;;4.28;2.08;;;21.40;67.10;;;;;;5055779;28;20031;-48
2021/06/18 10:26:15;;;;;;;5.03;2.13;;;21.40;67.00;;;;;;5055495;28;20052;-49
2021/06/18 10:29:01;;;;;;;3.30;2.20;;;21.50;66.90;;;;;;5054298;28;20063;-49
2021/06/18 10:31:28;;;;;;;2.45;1.92;;;21.50;66.80;;;;;;5054849;28;20037;-49
2021/06/18 10:34:08;;;;;;;4.05;2.10;;;21.40;66.70;;;;;;5055856;28;20145;-48
2021/06/18 10:36:35;;;;;;;7.13;1.80;;;21.40;66.70;;;;;;5055335;28;20029;-49
2021/06/18 10:39:08;;;;;;;6.10;2.13;;;21.40;66.40;;;;;;5055311;28;20151;-49
2021/06/18 10:41:45;;;;;;;2.65;1.77;;;21.40;66.30;;;;;;5054409;28;20029;-48
2021/06/18 10:44:11;;;;;;;5.28;1.80;;;21.40;66.20;;;;;;5055492;28;20266;-49
2021/06/18 10:46:37;;;;;;;3.15;1.88;;;21.40;66.20;;;;;;5038894;28;20053;-48
2021/06/18 10:49:05;;;;;;;3.88;2.22;;;21.40;65.90;;;;;;5035284;28;20034;-48
2021/06/18 10:51:37;;;;;;;3.67;2.08;;;21.40;65.70;;;;;;5034485;28;20037;-49
2021/06/18 10:54:25;;;;;;;7.10;2.15;;;21.40;65.80;;;;;;5035472;28;20030;-48
2021/06/18 10:56:59;;;;;;;2.65;1.90;;;21.40;65.50;;;;;;5035369;28;20029;-49
2021/06/18 10:59:39;;;;;;;3.47;2.45;;;21.40;65.10;;;;;;5035913;28;20325;-48
2021/06/18 11:02:25;;;;;;;3.20;2.35;;;21.40;65.00;;;;;;5054166;28;20456;-48
2021/06/18 11:04:58;;;;;;;5.20;2.22;;;21.40;65.00;;;;;;5054844;28;20456;-48
2021/06/18 11:07:25;;;;;;;5.38;2.15;;;21.40;65.10;;;;;;5053503;28;20059;-49
2021/06/18 11:09:52;;;;;;;3.60;2.33;;;21.40;65.00;;;;;;5054889;28;20029;-48
2021/06/18 11:12:24;;;;;;;2.22;1.80;;;21.50;65.10;;;;;;5054115;28;20021;-48
2021/06/18 11:15:00;;;;;;;3.67;2.10;;;21.40;64.70;;;;;;5054837;28;20025;-48
2021/06/18 11:17:48;;;;;;;4.93;2.72;;;21.40;64.60;;;;;;5054793;28;20075;-48
2021/06/18 11:20:17;;;;;;;6.43;2.38;;;21.40;64.70;;;;;;5053930;28;20037;-49
2021/06/18 11:22:53;;;;;;;7.23;2.93;;;21.40;64.40;;;;;;5054849;28;20033;-48
2021/06/18 11:25:40;;;;;;;3.72;2.60;;;21.40;64.30;;;;;;5054923;28;20028;-48
2021/06/18 11:28:35;;;;;;;2.55;2.17;;;21.40;64.20;;;;;;5054711;28;20036;-48
2021/06/18 11:31:08;;;;;;;3.08;2.47;;;21.40;64.20;;;;;;5051778;28;20041;-48
2021/06/18 11:33:40;;;;;;;7.30;2.63;;;21.40;64.20;;;;;;5054607;28;20036;-48
2021/06/18 11:36:06;;;;;;;3.22;2.45;;;21.40;64.20;;;;;;5054549;28;20029;-48
2021/06/18 11:38:34;;;;;;;3.50;1.88;;;21.40;64.20;;;;;;5054429;28;20028;-48
2021/06/18 11:41:02;;;;;;;3.08;1.85;;;21.40;64.20;;;;;;5053810;28;20167;-48
2021/06/18 11:43:31;;;;;;;3.47;1.98;;;21.40;64.20;;;;;;5054483;28;20017;-48
2021/06/18 11:46:01;;;;;;;2.38;1.67;;;21.40;64.20;;;;;;5053979;28;20029;-48
2021/06/18 11:48:27;;;;;;;2.70;1.90;;;21.40;64.20;;;;;;5054121;28;20439;-48
2021/06/18 11:50:53;;;;;;;3.83;1.85;;;21.40;64.00;;;;;;5053543;28;20063;-48
2021/06/18 11:53:20;;;;;;;5.55;1.75;;;21.40;64.00;;;;;;5053917;28;20017;-48
2021/06/18 11:55:59;;;;;;;3.58;1.85;;;21.40;64.10;;;;;;5054150;28;20025;-49
2021/06/18 11:58:35;;;;;;;3.60;2.10;;;21.40;64.10;;;;;;5054142;28;20037;-48
2021/06/18 12:01:16;;;;;;;2.72;1.95;;;21.50;63.80;;;;;;5053289;28;20032;-48
2021/06/18 12:03:44;;;;;;;2.78;1.90;;;21.40;63.70;;;;;;5045874;28;20036;-48
2021/06/18 12:06:16;;;;;;;2.10;1.90;;;21.40;63.50;;;;;;5052882;28;20025;-49
2021/06/18 12:09:18;;;;;;;4.60;2.50;;;21.40;63.50;;;;;;5053298;28;20055;-48
2021/06/18 12:11:46;;;;;;;4.50;2.40;;;21.40;63.40;;;;;;5009599;28;20096;-48
2021/06/18 12:14:14;;;;;;;4.70;2.13;;;21.40;63.40;;;;;;5011049;28;20034;-48
2021/06/18 12:16:45;;;;;;;2.60;1.92;;;21.50;63.40;;;;;;5011651;28;20104;-49
2021/06/18 12:19:27;;;;;;;5.43;2.40;;;21.40;63.30;;;;;;5010712;28;20041;-49
2021/06/18 12:22:11;;;;;;;2.42;2.10;;;21.40;63.10;;;;;;5010184;28;20465;-48
2021/06/18 12:24:40;;;;;;;3.10;2.30;;;21.50;63.00;;;;;;5010035;28;20489;-48
2021/06/18 12:27:09;;;;;;;3.60;2.30;;;21.40;63.00;;;;;;5011057;28;20496;-49
2021/06/18 12:29:46;;;;;;;4.87;2.60;;;21.40;63.10;;;;;;5010807;28;20034;-48
2021/06/18 12:32:15;;;;;;;5.97;2.33;;;21.40;63.10;;;;;;5010316;28;20064;-49
2021/06/18 12:34:47;;;;;;;4.75;2.50;;;21.50;63.30;;;;;;5010910;28;20177;-48
2021/06/18 12:37:13;;;;;;;8.95;2.50;;;21.40;63.10;;;;;;5010696;28;20345;-48
2021/06/18 12:39:50;;;;;;;3.13;2.53;;;21.50;63.10;;;;;;5010927;28;20463;-48
2021/06/18 12:42:28;;;;;;;3.22;2.10;;;21.50;63.10;;;;;;5009906;28;20030;-49
2021/06/18 12:45:11;;;;;;;5.70;2.47;;;21.50;63.00;;;;;;5011037;28;20022;-48
2021/06/18 12:47:38;;;;;;;7.85;2.92;;;21.50;63.00;;;;;;5037906;28;20139;-48
2021/06/18 12:50:31;;;;;;;6.03;2.30;;;21.50;63.00;;;;;;5051891;28;20530;-48
2021/06/18 12:53:00;;;;;;;12.07;2.42;;;21.40;63.00;;;;;;5052593;28;20025;-50
2021/06/18 12:55:33;;;;;;;2.65;2.17;;;21.40;63.00;;;;;;5052824;28;20108;-48